CheckWX is a tool to help pilots better visualize weather data.  It is not intended as a substitute for an official pre-flight weather briefing.

18:31:55 UTC

ENRM METAR
Rørvik , Ryum Airport
Rørvik, Norway
Current

12 mins ago

ENRM 171820Z 14013KT 7000 -SN VV015 01/M00 Q1009
Observed
Feb-17 @ 18:20 UTC
Wind
  • 140° at 13 KTS
Visibility
7,001 meters
Flight Rules
LIFR
Conditions
Light Snow
Cloud Levels
  • Vertical visibility at 1,500' AGL
Temperature
C / 34°F
Dewpoint
C / 32°F
Humidity
93%
Altimeter
29.79" Hg
Pressure
1008.92 hPa
Previous

42 mins ago

ENRM 171750Z 15014KT 9999 SCT040 SCT080 03/M04 Q1010
Observed
Feb-17 @ 17:50 UTC
Wind
  • 150° at 14 KTS
Visibility
10,000+ meters
Flight Rules
VFR
Cloud Levels
  • Scattered at 4,000' AGL
  • Scattered at 8,000' AGL
Temperature
C / 37°F
Dewpoint
-4°C / 25°F
Humidity
60%
Altimeter
29.82" Hg
Pressure
1009.92 hPa
Previous

1 hour ago

ENRM 171720Z 13010KT 100V170 9999 SCT040 SCT080 04/M05 Q1010
Observed
Feb-17 @ 17:20 UTC
Wind
  • 130° at 10 KTS
Visibility
10,000+ meters
Flight Rules
VFR
Cloud Levels
  • Scattered at 4,000' AGL
  • Scattered at 8,000' AGL
Temperature
C / 39°F
Dewpoint
-5°C / 23°F
Humidity
52%
Altimeter
29.82" Hg
Pressure
1009.92 hPa